Time;durP1;ratioP1;P1;durP2;ratioP2;P2;SDS_P1;SDS_P2;PMS_P1;PMS_P2;Temp;Humidity;BMP_temperature;BMP_pressure;BME280_temperature;BME280_humidity;BME280_pressure;Samples;Min_cycle;Max_cycle;Signal;HPM_P1;HPM_P2
2021/03/24 00:43:52;;;;;;;14.57;9.15;;;1.30;99.90;;;;;;6084363;23;20416;-93
2021/03/24 00:47:31;;;;;;;15.80;9.50;;;1.40;99.90;;;;;;6034629;23;20504;-94
2021/03/24 00:51:12;;;;;;;16.48;9.77;;;1.40;99.90;;;;;;5940451;24;20387;-93
2021/03/24 00:55:00;;;;;;;14.88;9.38;;;1.40;99.90;;;;;;5968856;24;20401;-94
2021/03/24 00:58:11;;;;;;;17.50;9.40;;;1.40;99.90;;;;;;5915570;24;20412;-93
2021/03/24 01:05:29;;;;;;;13.80;9.00;;;1.40;99.90;;;;;;5896117;24;20446;-95
2021/03/24 01:08:57;;;;;;;15.32;9.70;;;1.40;99.90;;;;;;5923303;24;20465;-92
2021/03/24 01:12:52;;;;;;;14.68;9.30;;;1.50;99.90;;;;;;5886949;24;20434;-93
2021/03/24 01:19:27;;;;;;;13.80;8.57;;;1.60;99.90;;;;;;5807662;24;20415;-93
2021/03/24 01:23:12;;;;;;;17.60;9.13;;;1.50;99.90;;;;;;5800618;24;20402;-93
2021/03/24 01:26:43;;;;;;;16.50;8.65;;;1.40;99.90;;;;;;5849705;24;20407;-94
2021/03/24 01:30:04;;;;;;;16.33;9.17;;;1.30;99.90;;;;;;5900019;24;20428;-94
2021/03/24 01:37:10;;;;;;;16.57;9.17;;;1.10;99.90;;;;;;5945619;24;20715;-96
2021/03/24 01:40:39;;;;;;;14.20;9.00;;;1.10;99.90;;;;;;5959409;23;20411;-95
2021/03/24 02:21:53;;;;;;;17.92;9.57;;;1.20;99.90;;;;;;6310652;22;20396;-95
2021/03/24 02:26:00;;;;;;;16.70;10.55;;;1.10;99.90;;;;;;6354792;22;20444;-96
2021/03/24 02:29:56;;;;;;;15.57;10.27;;;1.20;99.90;;;;;;6224124;23;20403;-95
2021/03/24 03:00:01;;;;;;;19.52;11.50;;;1.10;99.90;;;;;;6297213;22;20415;-96
2021/03/24 03:04:08;;;;;;;20.23;11.63;;;1.20;99.90;;;;;;6144161;23;20471;-95
2021/03/24 04:02:22;;;;;;;17.15;11.35;;;1.20;99.90;;;;;;6318023;22;20373;-93
2021/03/24 07:46:54;;;;;;;26.48;16.80;;;2.50;99.90;;;;;;6310726;22;20374;-93
2021/03/24 08:02:10;;;;;;;30.47;17.33;;;3.10;99.90;;;;;;6257449;22;20362;-93
2021/03/24 08:25:43;;;;;;;32.42;17.15;;;3.30;96.40;;;;;;6191208;23;20505;-95
2021/03/24 08:29:27;;;;;;;33.40;18.13;;;3.20;97.40;;;;;;6047909;23;20433;-93
2021/03/24 08:32:32;;;;;;;34.25;20.38;;;3.20;97.40;;;;;;6021062;23;20398;-94
2021/03/24 08:35:57;;;;;;;39.15;22.15;;;3.30;97.00;;;;;;6037078;23;20378;-92
2021/03/24 08:39:30;;;;;;;34.88;21.40;;;3.50;96.80;;;;;;6048325;23;20368;-94
2021/03/24 08:42:26;;;;;;;32.70;18.05;;;3.60;96.80;;;;;;6024916;23;20401;-94
2021/03/24 08:45:52;;;;;;;32.35;18.55;;;3.70;94.80;;;;;;6025996;23;20409;-91
2021/03/24 08:49:12;;;;;;;33.97;19.60;;;3.80;95.80;;;;;;6024567;23;20401;-92
2021/03/24 08:52:24;;;;;;;32.92;19.42;;;3.70;94.40;;;;;;6017148;23;20949;-93
2021/03/24 08:55:37;;;;;;;34.95;18.58;;;3.90;93.30;;;;;;6022979;23;20387;-91
2021/03/24 08:58:30;;;;;;;28.45;16.58;;;3.90;91.80;;;;;;6088392;23;20388;-91
2021/03/24 09:01:32;;;;;;;32.28;18.70;;;3.70;89.20;;;;;;6197771;23;20356;-91
2021/03/24 09:04:40;;;;;;;28.05;14.20;;;3.60;91.00;;;;;;6212232;23;20382;-91
2021/03/24 09:07:44;;;;;;;32.70;19.77;;;3.40;90.40;;;;;;6198417;23;20380;-92
2021/03/24 09:11:11;;;;;;;38.38;21.77;;;3.30;92.40;;;;;;6223223;23;20367;-92
2021/03/24 09:14:54;;;;;;;36.47;21.90;;;3.40;93.30;;;;;;6225192;23;20358;-95
2021/03/24 09:21:34;;;;;;;35.88;21.08;;;3.90;92.80;;;;;;6228133;23;20420;-93
2021/03/24 09:24:46;;;;;;;33.60;19.33;;;3.60;93.00;;;;;;6180224;23;20380;-93
2021/03/24 09:28:20;;;;;;;34.25;21.83;;;3.40;94.70;;;;;;6259554;22;20453;-96
2021/03/24 09:31:29;;;;;;;39.27;22.17;;;3.40;96.90;;;;;;6321297;22;20359;-91
2021/03/24 09:34:46;;;;;;;34.70;20.50;;;3.40;96.10;;;;;;6181841;23;20663;-90
2021/03/24 09:37:43;;;;;;;36.97;22.50;;;3.60;95.50;;;;;;6198206;23;20392;-92
2021/03/24 09:40:57;;;;;;;38.08;23.55;;;3.60;96.00;;;;;;6208874;23;20435;-91
2021/03/24 09:44:40;;;;;;;36.10;20.70;;;3.60;96.70;;;;;;6104918;23;20368;-92
2021/03/24 09:47:41;;;;;;;36.08;23.02;;;3.80;94.30;;;;;;6138128;23;20439;-92
2021/03/24 09:50:46;;;;;;;37.45;22.98;;;3.80;94.90;;;;;;6134856;23;20553;-92
2021/03/24 09:54:25;;;;;;;35.50;21.85;;;3.80;94.40;;;;;;6107371;23;20398;-91
2021/03/24 09:57:44;;;;;;;35.03;18.47;;;3.80;94.20;;;;;;6079498;23;20443;-94
2021/03/24 10:01:14;;;;;;;40.53;23.55;;;3.70;94.30;;;;;;6113777;23;20401;-92
2021/03/24 10:08:15;;;;;;;33.42;21.75;;;3.90;93.10;;;;;;6109739;23;20402;-94
2021/03/24 10:23:02;;;;;;;36.63;19.20;;;4.10;91.90;;;;;;6080363;23;20389;-92
2021/03/24 10:26:21;;;;;;;29.00;16.10;;;4.20;91.40;;;;;;6026246;23;20385;-95
2021/03/24 10:30:19;;;;;;;36.50;19.42;;;4.20;89.30;;;;;;6024038;23;20476;-92
2021/03/24 10:33:23;;;;;;;26.70;14.45;;;4.40;87.20;;;;;;5850730;24;20421;-92
2021/03/24 10:36:36;;;;;;;28.17;15.20;;;4.50;87.80;;;;;;5827654;24;20402;-96
2021/03/24 10:39:35;;;;;;;35.13;19.30;;;4.50;87.90;;;;;;5803989;24;20979;-89
2021/03/24 10:42:26;;;;;;;35.25;21.63;;;4.50;87.60;;;;;;5892841;24;20494;-88
2021/03/24 10:45:20;;;;;;;29.90;17.40;;;4.70;86.80;;;;;;5903074;24;20556;-89
2021/03/24 10:48:16;;;;;;;28.92;14.88;;;5.10;86.60;;;;;;5903105;24;20413;-92
2021/03/24 10:51:08;;;;;;;35.47;21.47;;;5.20;84.10;;;;;;5906307;24;20465;-88
2021/03/24 10:54:02;;;;;;;37.27;21.03;;;5.10;83.40;;;;;;5913858;24;20390;-89
2021/03/24 10:56:40;;;;;;;33.70;21.08;;;5.60;90.50;;;;;;5937515;24;20407;-89
2021/03/24 10:59:29;;;;;;;28.85;16.23;;;5.60;80.90;;;;;;5940001;24;20397;-89
2021/03/24 11:02:20;;;;;;;35.13;22.02;;;5.60;82.80;;;;;;5939774;24;20510;-89
2021/03/24 11:04:57;;;;;;;34.75;20.75;;;5.40;83.30;;;;;;5938769;24;20415;-89
2021/03/24 11:07:34;;;;;;;35.63;22.30;;;5.50;86.20;;;;;;5984652;23;20429;-89
2021/03/24 11:10:26;;;;;;;26.33;14.47;;;6.10;89.70;;;;;;6054131;23;20437;-89
2021/03/24 11:13:02;;;;;;;33.42;20.33;;;6.30;78.50;;;;;;6143983;23;20376;-89
2021/03/24 11:15:38;;;;;;;33.85;20.83;;;5.70;78.40;;;;;;6226017;23;20393;-89
2021/03/24 11:18:09;;;;;;;34.10;21.58;;;5.40;85.50;;;;;;6245608;22;20395;-89
2021/03/24 11:20:42;;;;;;;32.67;21.58;;;5.70;88.30;;;;;;6280076;22;20399;-89
2021/03/24 11:23:12;;;;;;;31.13;19.27;;;6.30;81.30;;;;;;6256979;22;20487;-89
2021/03/24 11:25:56;;;;;;;30.13;19.95;;;6.70;79.80;;;;;;6257047;22;20404;-89
2021/03/24 11:28:40;;;;;;;31.63;19.75;;;6.50;80.30;;;;;;6292230;22;20409;-89
2021/03/24 11:31:08;;;;;;;30.98;20.50;;;7.10;78.70;;;;;;6313240;22;20362;-89
2021/03/24 11:33:47;;;;;;;28.92;18.90;;;7.50;75.70;;;;;;6315172;22;20385;-90
2021/03/24 11:36:38;;;;;;;30.77;18.77;;;7.90;72.20;;;;;;6317408;22;20478;-90
2021/03/24 11:39:26;;;;;;;31.58;19.98;;;7.80;68.90;;;;;;6309121;22;20374;-90
2021/03/24 11:42:15;;;;;;;22.98;12.88;;;7.80;70.90;;;;;;6315304;22;20383;-89
2021/03/24 11:44:46;;;;;;;30.05;17.67;;;7.00;74.10;;;;;;6320691;22;20450;-91
2021/03/24 11:47:38;;;;;;;36.78;19.63;;;6.30;78.20;;;;;;6320801;22;20454;-90
2021/03/24 11:50:26;;;;;;;32.85;21.23;;;6.10;79.20;;;;;;6318647;22;20448;-90
2021/03/24 11:53:22;;;;;;;34.50;21.35;;;6.50;78.70;;;;;;6293159;22;20385;-90
2021/03/24 11:56:11;;;;;;;32.80;19.45;;;7.00;84.90;;;;;;6312530;22;20381;-90
2021/03/24 11:59:03;;;;;;;31.13;20.95;;;7.30;76.40;;;;;;6315753;22;20935;-90
2021/03/24 12:01:57;;;;;;;27.42;17.40;;;7.30;77.60;;;;;;6314126;22;20363;-89
2021/03/24 12:04:53;;;;;;;30.30;19.93;;;7.50;74.30;;;;;;6314762;22;20444;-96
2021/03/24 12:07:20;;;;;;;31.73;18.90;;;7.80;75.50;;;;;;6313849;22;20843;-90
2021/03/24 12:09:47;;;;;;;31.40;21.35;;;7.80;75.50;;;;;;6315698;22;20398;-90
2021/03/24 12:12:24;;;;;;;30.48;14.85;;;7.70;75.00;;;;;;6317918;22;20727;-89
2021/03/24 12:15:14;;;;;;;30.60;18.65;;;7.70;75.40;;;;;;6317623;22;20374;-90
2021/03/24 12:17:43;;;;;;;31.52;19.02;;;7.70;74.20;;;;;;6316319;22;20355;-89
2021/03/24 12:20:20;;;;;;;32.10;21.37;;;7.80;76.70;;;;;;6316436;22;20382;-90
2021/03/24 12:22:59;;;;;;;33.13;19.53;;;7.80;76.90;;;;;;6316579;22;20377;-89
2021/03/24 12:25:31;;;;;;;27.27;16.17;;;7.90;73.80;;;;;;6318657;22;20362;-89
2021/03/24 12:28:28;;;;;;;32.08;20.23;;;8.10;73.40;;;;;;6323070;22;20386;-93
2021/03/24 12:31:19;;;;;;;28.73;17.30;;;8.20;71.70;;;;;;6321344;22;20402;-91
2021/03/24 12:34:00;;;;;;;30.98;20.92;;;8.30;71.80;;;;;;6321618;22;20425;-92
2021/03/24 12:37:36;;;;;;;32.92;20.10;;;8.40;72.80;;;;;;6322142;22;20398;-91
2021/03/24 12:40:46;;;;;;;27.77;17.35;;;8.40;78.00;;;;;;6319561;22;20434;-96
2021/03/24 12:43:26;;;;;;;29.58;16.05;;;8.60;71.50;;;;;;6320952;22;20433;-93
2021/03/24 12:45:53;;;;;;;32.47;18.85;;;8.90;70.00;;;;;;6292751;22;20383;-96
2021/03/24 12:48:35;;;;;;;18.05;10.82;;;8.80;68.80;;;;;;6319057;22;20378;-91
2021/03/24 12:51:20;;;;;;;26.25;16.95;;;8.70;69.50;;;;;;6292865;22;20383;-91
2021/03/24 12:54:18;;;;;;;30.52;19.08;;;8.50;69.40;;;;;;6298031;22;20358;-91
2021/03/24 12:56:55;;;;;;;31.42;19.00;;;8.90;70.40;;;;;;6260612;22;20370;-96
2021/03/24 12:59:58;;;;;;;29.10;19.08;;;9.20;67.60;;;;;;6298996;22;20381;-92
2021/03/24 13:03:18;;;;;;;32.08;18.75;;;8.90;68.50;;;;;;6317862;22;20366;-90
2021/03/24 13:06:14;;;;;;;29.05;17.27;;;9.40;68.00;;;;;;6296567;22;20370;-96
2021/03/24 13:09:12;;;;;;;29.50;20.10;;;9.70;69.20;;;;;;6317607;22;20394;-96
2021/03/24 13:12:19;;;;;;;32.88;17.80;;;10.00;68.30;;;;;;6318954;22;20874;-91
2021/03/24 13:15:16;;;;;;;31.10;21.10;;;9.50;66.50;;;;;;6291922;22;20430;-91
2021/03/24 13:18:32;;;;;;;29.08;19.80;;;10.00;70.60;;;;;;6293216;22;20371;-92
2021/03/24 13:21:32;;;;;;;28.88;20.13;;;10.80;66.10;;;;;;6318771;22;20390;-92
2021/03/24 13:24:25;;;;;;;28.95;20.55;;;10.90;63.20;;;;;;6291358;22;20382;-94
2021/03/24 13:26:58;;;;;;;29.80;18.23;;;11.50;63.20;;;;;;6286955;22;20389;-89
2021/03/24 13:29:34;;;;;;;28.67;18.30;;;11.80;60.40;;;;;;6286634;22;20457;-95
2021/03/24 13:32:09;;;;;;;28.48;19.30;;;11.30;59.00;;;;;;6313166;22;20363;-90
2021/03/24 13:35:02;;;;;;;29.93;17.50;;;11.10;63.40;;;;;;6288118;22;20385;-90
2021/03/24 13:37:30;;;;;;;25.50;16.58;;;10.60;60.60;;;;;;6254394;22;20761;-90
2021/03/24 13:40:21;;;;;;;29.48;18.80;;;9.80;64.10;;;;;;6251558;22;20384;-87
2021/03/24 13:43:20;;;;;;;32.17;20.98;;;9.90;66.70;;;;;;6256051;22;20463;-89
2021/03/24 13:46:19;;;;;;;30.13;19.17;;;10.30;64.60;;;;;;6259517;22;20867;-91
2021/03/24 13:49:05;;;;;;;30.60;18.02;;;10.20;67.10;;;;;;6258193;22;20422;-90
2021/03/24 13:51:43;;;;;;;31.33;18.75;;;10.00;64.10;;;;;;6285525;22;20384;-95
2021/03/24 13:57:08;;;;;;;27.83;16.13;;;10.50;64.40;;;;;;6326679;22;20461;-95
2021/03/24 13:59:37;;;;;;;30.30;16.80;;;10.30;62.60;;;;;;6318712;22;20377;-93
2021/03/24 14:02:45;;;;;;;32.30;20.60;;;10.20;63.50;;;;;;6317199;22;20796;-94
2021/03/24 14:05:16;;;;;;;27.98;17.60;;;10.40;66.00;;;;;;6316149;22;20372;-96
2021/03/24 14:07:57;;;;;;;33.03;21.30;;;10.80;66.20;;;;;;6314764;22;20849;-95
2021/03/24 14:10:31;;;;;;;30.92;20.30;;;11.00;63.40;;;;;;6313338;22;20399;-96
2021/03/24 14:13:22;;;;;;;28.80;18.65;;;11.50;61.90;;;;;;6316985;22;20715;-94
2021/03/24 14:16:32;;;;;;;30.67;20.95;;;12.00;58.90;;;;;;6317805;22;20368;-96
2021/03/24 14:19:21;;;;;;;28.73;17.77;;;11.60;60.10;;;;;;6312399;22;20376;-93
2021/03/24 14:22:00;;;;;;;29.40;17.80;;;11.50;58.90;;;;;;6317962;22;20444;-92
2021/03/24 14:24:49;;;;;;;28.02;16.73;;;10.80;60.20;;;;;;6318496;22;20448;-96
2021/03/24 14:27:38;;;;;;;32.40;19.65;;;10.30;61.60;;;;;;6315925;22;20438;-96
2021/03/24 14:30:12;;;;;;;31.85;20.20;;;10.10;65.80;;;;;;6345444;22;20880;-94
2021/03/24 14:33:14;;;;;;;32.00;19.88;;;10.30;67.20;;;;;;6320555;22;20365;-94
2021/03/24 14:35:53;;;;;;;32.33;20.25;;;10.60;64.10;;;;;;6346662;22;20585;-96
2021/03/24 14:38:49;;;;;;;29.55;20.50;;;10.90;63.70;;;;;;6322716;22;20403;-95
2021/03/24 14:41:30;;;;;;;30.93;19.97;;;10.90;62.40;;;;;;6315427;22;20439;-96
2021/03/24 14:44:25;;;;;;;30.20;20.73;;;11.00;61.30;;;;;;6317070;22;20396;-96
2021/03/24 14:47:14;;;;;;;33.20;19.83;;;11.30;60.60;;;;;;6315316;22;20422;-96
2021/03/24 14:50:03;;;;;;;32.40;20.47;;;11.10;61.20;;;;;;6319481;22;20397;-95
2021/03/24 14:52:54;;;;;;;32.60;20.42;;;10.80;62.30;;;;;;6311872;22;20370;-95
2021/03/24 14:56:03;;;;;;;29.80;20.35;;;10.50;64.20;;;;;;6240141;22;20382;-96
2021/03/24 14:58:53;;;;;;;32.60;20.13;;;10.90;63.50;;;;;;6308450;22;20440;-93
2021/03/24 15:01:34;;;;;;;33.95;22.10;;;11.00;61.30;;;;;;6292089;22;20379;-95
2021/03/24 15:04:23;;;;;;;34.65;21.95;;;11.00;63.20;;;;;;6317905;22;20875;-92
2021/03/24 15:06:51;;;;;;;34.65;21.55;;;11.50;59.90;;;;;;6314539;22;20957;-96
2021/03/24 15:09:32;;;;;;;29.67;19.23;;;12.00;59.20;;;;;;6319259;22;20384;-91
2021/03/24 15:12:34;;;;;;;32.30;22.07;;;11.50;58.90;;;;;;6315049;22;20701;-96
2021/03/24 15:15:11;;;;;;;30.60;17.27;;;11.20;61.60;;;;;;6317062;22;20381;-92
2021/03/24 15:18:11;;;;;;;31.98;18.15;;;11.00;60.40;;;;;;6315270;22;20379;-95
2021/03/24 15:20:48;;;;;;;32.73;20.00;;;10.50;62.60;;;;;;6187943;23;20386;-93
2021/03/24 15:23:26;;;;;;;33.78;21.10;;;10.30;64.60;;;;;;6160659;23;20472;-95
2021/03/24 15:25:56;;;;;;;31.15;18.58;;;10.40;62.30;;;;;;6161055;23;20492;-96
2021/03/24 15:29:06;;;;;;;35.20;22.13;;;10.30;62.50;;;;;;6164760;23;20409;-96
2021/03/24 15:31:57;;;;;;;34.17;21.83;;;10.00;65.10;;;;;;6196863;23;20378;-96
2021/03/24 15:34:51;;;;;;;34.00;20.75;;;10.00;65.40;;;;;;6171939;23;20373;-93
2021/03/24 15:37:46;;;;;;;33.95;21.33;;;10.70;64.60;;;;;;6174120;23;20393;-94
2021/03/24 15:40:43;;;;;;;33.00;20.23;;;10.90;63.80;;;;;;6187046;23;20399;-96
2021/03/24 15:43:42;;;;;;;33.80;21.52;;;10.90;61.40;;;;;;6203251;23;20391;-96
2021/03/24 15:46:27;;;;;;;31.33;20.58;;;10.70;62.80;;;;;;6197053;23;20388;-94
2021/03/24 15:55:10;;;;;;;33.00;20.98;;;10.80;62.00;;;;;;6355655;22;20400;-94
2021/03/24 16:00:23;;;;;;;33.07;21.33;;;10.10;63.70;;;;;;6307849;22;20386;-96
2021/03/24 16:03:51;;;;;;;33.08;20.63;;;10.10;63.30;;;;;;6323199;22;20370;-96
2021/03/24 16:07:02;;;;;;;31.97;20.13;;;10.00;64.30;;;;;;6295906;22;20382;-96
2021/03/24 16:19:27;;;;;;;36.22;20.45;;;9.30;66.80;;;;;;6350567;22;20389;-96
2021/03/24 16:23:06;;;;;;;31.67;20.67;;;9.40;65.90;;;;;;6301502;22;20697;-96
2021/03/24 16:26:51;;;;;;;35.60;21.13;;;9.40;66.30;;;;;;6358273;22;20369;-96
2021/03/24 16:30:17;;;;;;;36.05;20.50;;;9.40;66.70;;;;;;6259949;23;20417;-93
2021/03/24 16:33:39;;;;;;;35.70;21.42;;;9.30;67.10;;;;;;6265805;22;20370;-96
2021/03/24 16:37:12;;;;;;;40.83;22.90;;;9.00;67.60;;;;;;6264365;23;20429;-96
2021/03/24 16:41:03;;;;;;;36.28;22.33;;;8.90;68.30;;;;;;6061296;23;20495;-96
2021/03/24 16:56:32;;;;;;;38.08;23.55;;;7.90;72.20;;;;;;6353648;22;20449;-96
2021/03/24 17:00:31;;;;;;;40.28;23.77;;;7.60;74.00;;;;;;6268126;22;20366;-96
2021/03/24 17:04:08;;;;;;;37.97;23.15;;;7.50;74.40;;;;;;6103584;23;20388;-96
2021/03/24 17:08:11;;;;;;;48.00;28.52;;;7.30;75.30;;;;;;6025923;23;20391;-92
2021/03/24 17:11:57;;;;;;;39.95;24.17;;;6.90;78.50;;;;;;5988897;23;20744;-93
2021/03/24 17:32:52;;;;;;;46.67;28.23;;;5.30;90.90;;;;;;6352135;22;20420;-92
2021/03/24 17:36:22;;;;;;;49.00;28.83;;;5.30;91.70;;;;;;6351370;22;20384;-92
2021/03/24 17:40:21;;;;;;;44.55;28.13;;;5.10;92.40;;;;;;6261754;22;20502;-92
2021/03/24 17:43:59;;;;;;;48.17;28.20;;;5.00;93.20;;;;;;6229668;23;20432;-92
2021/03/24 18:00:26;;;;;;;50.50;29.48;;;4.50;96.70;;;;;;6341421;22;20383;-93
2021/03/24 18:03:38;;;;;;;51.30;30.52;;;4.50;97.30;;;;;;6209951;23;20370;-91
2021/03/24 18:06:44;;;;;;;50.90;29.73;;;4.40;97.80;;;;;;6254779;23;20378;-91
2021/03/24 18:09:55;;;;;;;49.85;30.05;;;4.40;97.90;;;;;;6256307;23;20428;-91
2021/03/24 18:12:54;;;;;;;49.97;30.73;;;4.40;98.30;;;;;;6258320;22;20386;-91
2021/03/24 18:15:55;;;;;;;50.28;30.52;;;4.30;98.70;;;;;;6263221;23;20426;-91
2021/03/24 18:18:43;;;;;;;48.33;31.20;;;4.30;98.90;;;;;;6265025;23;20381;-91
2021/03/24 18:21:55;;;;;;;51.75;32.42;;;4.20;99.40;;;;;;6197044;23;20362;-91
2021/03/24 18:24:40;;;;;;;52.80;32.00;;;4.10;99.90;;;;;;6199028;23;20424;-93
2021/03/24 18:28:06;;;;;;;54.00;33.65;;;3.90;99.90;;;;;;6183774;23;20400;-91
2021/03/24 18:31:33;;;;;;;56.75;34.22;;;3.90;99.90;;;;;;6201185;23;20902;-91
2021/03/24 18:34:48;;;;;;;61.72;36.25;;;3.60;99.90;;;;;;6180537;23;20383;-91
2021/03/24 18:38:28;;;;;;;62.97;35.13;;;3.70;99.90;;;;;;6201846;23;20461;-93
2021/03/24 18:41:24;;;;;;;56.60;33.55;;;3.70;99.90;;;;;;6111909;23;20397;-93
2021/03/24 18:44:15;;;;;;;60.05;34.50;;;3.70;99.90;;;;;;6089314;23;20387;-90
2021/03/24 18:48:07;;;;;;;63.50;36.03;;;3.90;99.90;;;;;;6115502;23;20365;-94
2021/03/24 18:51:38;;;;;;;59.67;35.37;;;3.80;99.90;;;;;;6055964;23;20406;-92
2021/03/24 18:54:39;;;;;;;70.45;39.03;;;3.80;99.90;;;;;;6049810;23;20385;-94
2021/03/24 18:57:25;;;;;;;64.68;35.70;;;3.90;99.90;;;;;;6047920;23;20405;-96
2021/03/24 19:00:30;;;;;;;63.72;36.88;;;3.90;99.90;;;;;;6019201;23;20473;-95
2021/03/24 19:03:18;;;;;;;57.88;34.15;;;3.90;99.90;;;;;;6022932;23;20596;-96
2021/03/24 19:05:50;;;;;;;57.78;34.83;;;3.80;99.90;;;;;;6048077;23;20397;-96
2021/03/24 19:08:27;;;;;;;56.78;32.63;;;3.70;99.90;;;;;;6071055;23;20396;-96
2021/03/24 19:11:07;;;;;;;56.55;32.65;;;3.80;99.90;;;;;;6047216;23;20417;-96
2021/03/24 19:13:42;;;;;;;57.55;34.22;;;3.80;99.90;;;;;;6040544;23;20462;-96
2021/03/24 19:16:20;;;;;;;63.63;35.05;;;3.80;99.90;;;;;;6038691;23;20521;-95
2021/03/24 19:18:55;;;;;;;60.72;34.90;;;3.80;99.90;;;;;;6068557;23;20397;-95
2021/03/24 19:21:31;;;;;;;60.88;35.03;;;3.80;99.90;;;;;;6067626;23;20513;-96
2021/03/24 19:24:12;;;;;;;60.58;36.80;;;3.70;99.90;;;;;;6068866;23;20461;-95
2021/03/24 19:27:22;;;;;;;56.53;34.10;;;3.60;99.90;;;;;;6065930;23;20783;-92
2021/03/24 19:30:01;;;;;;;57.75;34.28;;;3.60;99.90;;;;;;6045591;23;20472;-92
2021/03/24 19:32:39;;;;;;;57.17;33.55;;;3.60;99.90;;;;;;6022366;23;20400;-93
2021/03/24 19:35:30;;;;;;;58.80;34.23;;;3.60;99.90;;;;;;6089654;23;20397;-94
2021/03/24 19:38:26;;;;;;;56.05;32.38;;;3.60;99.90;;;;;;6148914;23;20483;-95
2021/03/24 19:41:16;;;;;;;59.08;34.40;;;3.60;99.90;;;;;;6129877;23;20467;-95
2021/03/24 19:44:07;;;;;;;58.15;34.53;;;3.50;99.90;;;;;;6143362;23;20472;-95
2021/03/24 19:46:36;;;;;;;56.57;33.83;;;3.50;99.90;;;;;;6218092;23;20478;-94
2021/03/24 19:49:17;;;;;;;58.38;33.03;;;3.50;99.90;;;;;;6218437;23;20749;-96
2021/03/24 19:51:46;;;;;;;63.35;33.85;;;3.50;99.90;;;;;;6220112;23;20394;-93
2021/03/24 19:54:26;;;;;;;59.60;32.90;;;3.50;99.90;;;;;;6154024;23;20430;-93
2021/03/24 19:57:12;;;;;;;62.58;35.35;;;3.50;99.90;;;;;;6202156;23;20451;-93
2021/03/24 19:59:40;;;;;;;60.77;34.40;;;3.50;99.90;;;;;;6200806;23;20390;-93
2021/03/24 20:02:56;;;;;;;61.78;35.13;;;3.40;99.90;;;;;;6253208;23;20409;-93
2021/03/24 20:05:39;;;;;;;61.90;34.83;;;3.50;99.90;;;;;;6283628;22;20417;-92
2021/03/24 20:08:17;;;;;;;62.63;35.33;;;3.40;99.90;;;;;;6257712;22;20416;-93
2021/03/24 20:10:52;;;;;;;61.10;34.65;;;3.40;99.90;;;;;;6258227;23;20746;-93
2021/03/24 20:13:58;;;;;;;59.33;34.17;;;3.50;99.90;;;;;;6257445;23;20357;-92
2021/03/24 20:16:44;;;;;;;58.30;34.10;;;3.60;99.90;;;;;;6254990;22;20424;-92
2021/03/24 20:19:18;;;;;;;62.40;34.47;;;3.60;99.90;;;;;;6231089;23;20712;-96
2021/03/24 20:21:47;;;;;;;60.80;34.50;;;3.60;99.90;;;;;;6257832;23;20459;-95
2021/03/24 20:24:28;;;;;;;57.83;33.45;;;3.70;99.90;;;;;;6258444;23;20766;-92
2021/03/24 20:26:59;;;;;;;57.28;34.30;;;3.60;99.90;;;;;;6256370;23;20373;-93
2021/03/24 20:29:36;;;;;;;62.05;34.78;;;3.50;99.90;;;;;;6258848;23;20415;-96
2021/03/24 20:32:10;;;;;;;60.13;34.20;;;3.60;99.90;;;;;;6255262;23;20390;-96
2021/03/24 20:35:24;;;;;;;58.67;34.15;;;3.60;99.90;;;;;;6258422;23;20432;-91
2021/03/24 20:38:52;;;;;;;55.75;33.30;;;3.50;99.90;;;;;;6264532;22;20473;-91
2021/03/24 20:52:50;;;;;;;58.22;32.90;;;3.40;99.90;;;;;;6319864;22;20386;-91
2021/03/24 20:55:53;;;;;;;60.67;33.88;;;3.10;99.90;;;;;;6329364;22;20359;-92
2021/03/24 21:01:34;;;;;;;59.40;33.20;;;2.70;99.90;;;;;;6264681;22;20386;-91
2021/03/24 21:04:07;;;;;;;68.90;36.17;;;2.60;99.90;;;;;;6261589;23;20418;-95
2021/03/24 21:07:12;;;;;;;66.38;35.72;;;2.40;99.90;;;;;;6264023;23;20721;-90
2021/03/24 21:15:23;;;;;;;61.28;34.67;;;2.50;99.90;;;;;;6350112;22;20384;-94
2021/03/24 21:18:06;;;;;;;62.83;34.92;;;2.60;99.90;;;;;;6332898;22;20368;-95
2021/03/24 21:21:29;;;;;;;63.03;34.22;;;2.60;99.90;;;;;;6359086;22;20389;-93
2021/03/24 21:24:44;;;;;;;59.63;32.88;;;2.80;99.90;;;;;;6358183;22;20394;-94
2021/03/24 21:27:36;;;;;;;63.30;34.20;;;2.90;99.90;;;;;;6356546;22;20368;-90
2021/03/24 21:30:30;;;;;;;60.10;33.20;;;3.00;99.90;;;;;;6305465;22;20419;-94
2021/03/24 21:33:18;;;;;;;57.17;31.20;;;3.10;99.90;;;;;;6349033;22;20422;-91
2021/03/24 21:36:00;;;;;;;58.47;31.83;;;3.30;99.90;;;;;;6325968;22;20385;-93
2021/03/24 21:38:37;;;;;;;59.67;31.50;;;3.40;99.90;;;;;;6325259;22;20373;-95
2021/03/24 21:41:16;;;;;;;54.20;30.10;;;3.60;99.90;;;;;;6351543;22;20398;-95
2021/03/24 21:43:58;;;;;;;52.28;28.67;;;3.70;99.50;;;;;;6324484;22;20376;-96
2021/03/24 21:46:41;;;;;;;54.70;28.80;;;3.80;98.50;;;;;;6347911;22;20402;-96
2021/03/24 21:49:11;;;;;;;53.97;28.25;;;3.90;98.10;;;;;;6322445;22;20444;-91
2021/03/24 21:51:53;;;;;;;53.15;27.45;;;4.00;97.80;;;;;;6348342;22;20471;-95
2021/03/24 21:54:28;;;;;;;54.70;29.10;;;4.00;97.80;;;;;;6325756;22;20365;-91
2021/03/24 21:57:41;;;;;;;52.88;30.38;;;4.10;97.70;;;;;;6326361;22;20414;-91
2021/03/24 22:00:25;;;;;;;54.13;30.52;;;4.10;97.70;;;;;;6328998;22;20416;-95
2021/03/24 22:03:04;;;;;;;54.97;30.23;;;4.10;97.70;;;;;;6322348;22;20458;-92
2021/03/24 22:05:36;;;;;;;57.03;30.67;;;4.00;98.20;;;;;;6349761;22;20438;-93
2021/03/24 22:08:19;;;;;;;61.20;32.60;;;3.70;98.80;;;;;;6329854;22;20392;-90
2021/03/24 22:10:47;;;;;;;58.65;31.58;;;3.70;99.50;;;;;;6318104;22;20396;-91
2021/03/24 22:13:13;;;;;;;56.10;30.92;;;3.60;99.50;;;;;;6327740;22;20407;-90
2021/03/24 22:16:08;;;;;;;61.30;31.88;;;3.40;99.90;;;;;;6320805;22;20387;-91
2021/03/24 22:18:39;;;;;;;58.35;32.28;;;3.20;99.90;;;;;;6336953;22;20380;-91
2021/03/24 22:21:08;;;;;;;58.95;31.08;;;3.30;99.90;;;;;;6347396;22;20932;-95
2021/03/24 22:23:36;;;;;;;57.85;31.55;;;3.30;99.90;;;;;;6318188;22;20971;-92
2021/03/24 22:26:05;;;;;;;62.50;33.72;;;3.50;99.90;;;;;;6316311;22;20385;-96
2021/03/24 22:28:38;;;;;;;59.93;32.33;;;3.40;99.90;;;;;;6316894;22;20377;-92
2021/03/24 22:31:17;;;;;;;60.47;32.72;;;3.20;99.90;;;;;;6318995;22;20385;-91
2021/03/24 22:34:01;;;;;;;61.17;33.50;;;3.00;99.90;;;;;;6318683;22;20377;-94
2021/03/24 22:36:39;;;;;;;64.07;33.47;;;2.90;99.90;;;;;;6318177;22;20376;-94
2021/03/24 22:39:27;;;;;;;59.37;32.77;;;2.80;99.90;;;;;;6319858;22;20387;-94
2021/03/24 22:41:55;;;;;;;64.18;32.83;;;2.80;99.90;;;;;;6317014;22;20393;-92
2021/03/24 22:44:34;;;;;;;61.05;33.00;;;2.80;99.90;;;;;;6318122;22;20695;-94
2021/03/24 22:47:31;;;;;;;59.35;32.80;;;2.70;99.90;;;;;;6315282;22;20381;-91
2021/03/24 22:50:18;;;;;;;65.28;33.95;;;2.50;99.90;;;;;;6316608;22;20691;-93
2021/03/24 22:53:08;;;;;;;64.73;34.80;;;2.20;99.90;;;;;;6318263;22;20434;-92
2021/03/24 22:56:13;;;;;;;69.22;35.25;;;2.00;99.90;;;;;;6319227;22;20397;-96
2021/03/24 22:59:02;;;;;;;69.68;36.60;;;1.80;99.90;;;;;;6319965;22;20389;-93
2021/03/24 23:01:29;;;;;;;72.97;36.25;;;1.60;99.90;;;;;;6319020;22;20748;-96
2021/03/24 23:04:20;;;;;;;77.73;38.10;;;1.50;99.90;;;;;;6315679;22;20449;-94
2021/03/24 23:06:52;;;;;;;69.88;35.75;;;1.40;99.90;;;;;;6315248;22;20385;-92
2021/03/24 23:09:28;;;;;;;76.00;36.65;;;1.40;99.90;;;;;;6295569;22;20467;-92
2021/03/24 23:12:12;;;;;;;76.65;37.50;;;1.30;99.90;;;;;;6315788;22;20387;-92
2021/03/24 23:15:05;;;;;;;74.43;36.40;;;1.20;99.90;;;;;;6313913;22;20844;-93
2021/03/24 23:17:58;;;;;;;86.97;39.80;;;1.10;99.90;;;;;;6323626;22;20455;-95
2021/03/24 23:20:41;;;;;;;80.32;37.65;;;1.10;99.90;;;;;;6308136;22;20393;-96
2021/03/24 23:23:08;;;;;;;83.30;39.15;;;1.10;99.90;;;;;;6312441;22;20386;-95
2021/03/24 23:25:39;;;;;;;80.07;38.35;;;1.10;99.90;;;;;;6313484;22;20376;-95
2021/03/24 23:28:11;;;;;;;71.20;36.75;;;1.20;99.90;;;;;;6312984;22;20464;-96
2021/03/24 23:30:44;;;;;;;78.03;37.53;;;1.20;99.90;;;;;;6315189;22;20865;-96
2021/03/24 23:33:13;;;;;;;74.22;36.40;;;1.20;99.90;;;;;;6316212;22;20377;-96
2021/03/24 23:35:42;;;;;;;72.22;36.35;;;1.30;99.90;;;;;;6315387;22;20963;-95
2021/03/24 23:38:15;;;;;;;71.25;36.78;;;1.40;99.90;;;;;;6343178;22;20371;-95
2021/03/24 23:40:43;;;;;;;70.72;36.72;;;1.40;99.90;;;;;;6316984;22;20405;-95
2021/03/24 23:43:12;;;;;;;75.80;36.63;;;1.30;99.90;;;;;;6290245;22;20507;-96
2021/03/24 23:45:40;;;;;;;79.27;38.07;;;1.30;99.90;;;;;;6320792;22;20392;-94
2021/03/24 23:48:18;;;;;;;79.03;38.45;;;1.20;99.90;;;;;;6320471;22;20461;-93
2021/03/24 23:50:49;;;;;;;77.90;37.58;;;1.10;99.90;;;;;;6322042;22;20467;-94
2021/03/24 23:53:18;;;;;;;80.97;38.88;;;1.00;99.90;;;;;;6297666;22;20749;-96